Time;durP1;ratioP1;P1;durP2;ratioP2;P2;SDS_P1;SDS_P2;PMS_P1;PMS_P2;Temp;Humidity;BMP_temperature;BMP_pressure;BME280_temperature;BME280_humidity;BME280_pressure;Samples;Min_cycle;Max_cycle;Signal;HPM_P1;HPM_P2
2021/01/01 00:01:02;;;;;;;293.33;142.67;;;;;;;;;;5091672;28;20091;-60
2021/01/01 00:03:28;;;;;;;307.90;149.37;;;;;;;;;;5093056;28;20066;-60
2021/01/01 00:05:53;;;;;;;288.57;140.20;;;;;;;;;;5091966;28;20099;-62
2021/01/01 00:08:19;;;;;;;255.90;131.70;;;;;;;;;;5092425;28;20036;-61
2021/01/01 00:10:44;;;;;;;256.10;125.93;;;;;;;;;;5092212;28;20048;-61
2021/01/01 00:13:10;;;;;;;238.90;117.73;;;;;;;;;;5073861;28;20901;-61
2021/01/01 00:15:35;;;;;;;194.57;99.57;;;;;;;;;;5091562;28;20024;-60
2021/01/01 00:18:00;;;;;;;200.07;98.80;;;;;;;;;;5073287;28;20200;-60
2021/01/01 00:20:26;;;;;;;179.00;87.83;;;;;;;;;;5092343;28;20443;-61
2021/01/01 00:22:51;;;;;;;202.93;98.97;;;;;;;;;;5092251;28;20015;-60
2021/01/01 00:25:16;;;;;;;161.37;73.17;;;;;;;;;;5092173;28;20059;-61
2021/01/01 00:27:42;;;;;;;149.27;75.33;;;;;;;;;;5091980;28;20099;-60
2021/01/01 00:30:08;;;;;;;141.77;68.93;;;;;;;;;;5073027;28;20028;-59
2021/01/01 00:32:34;;;;;;;133.03;63.47;;;;;;;;;;5091571;28;20024;-60
2021/01/01 00:34:59;;;;;;;133.75;63.20;;;;;;;;;;5091065;28;20047;-60
2021/01/01 00:37:25;;;;;;;125.30;62.37;;;;;;;;;;5095877;28;20019;-60
2021/01/01 00:39:50;;;;;;;124.17;59.43;;;;;;;;;;5112469;28;20039;-62
2021/01/01 00:42:16;;;;;;;143.07;66.20;;;;;;;;;;5094416;28;20430;-60
2021/01/01 00:44:41;;;;;;;125.60;62.97;;;;;;;;;;5090595;28;20098;-59
2021/01/01 00:47:10;;;;;;;136.30;66.50;;;;;;;;;;5054913;28;20028;-59
2021/01/01 00:49:35;;;;;;;137.57;66.95;;;;;;;;;;5090400;28;20031;-60
2021/01/01 00:52:01;;;;;;;141.83;64.67;;;;;;;;;;5089753;28;20028;-60
2021/01/01 00:54:27;;;;;;;135.60;65.25;;;;;;;;;;5072058;28;20051;-60
2021/01/01 00:56:52;;;;;;;119.20;55.03;;;;;;;;;;5072961;28;20039;-61
2021/01/01 00:59:17;;;;;;;449.10;213.40;;;;;;;;;;5090861;28;20032;-61
2021/01/01 01:01:42;;;;;;;239.27;107.60;;;;;;;;;;5091916;28;20039;-61
2021/01/01 01:04:08;;;;;;;171.37;83.13;;;;;;;;;;5072866;28;20024;-61
2021/01/01 01:06:33;;;;;;;173.67;80.33;;;;;;;;;;5056624;28;20089;-60
2021/01/01 01:08:58;;;;;;;175.67;84.27;;;;;;;;;;5091425;28;20055;-61
2021/01/01 01:11:28;;;;;;;185.33;84.77;;;;;;;;;;5092514;28;20226;-60
2021/01/01 01:13:54;;;;;;;196.20;88.75;;;;;;;;;;5091477;28;20134;-60
2021/01/01 01:16:21;;;;;;;193.10;88.25;;;;;;;;;;5091595;28;20028;-62
2021/01/01 01:18:47;;;;;;;192.10;89.57;;;;;;;;;;5092138;28;20039;-62
2021/01/01 01:21:12;;;;;;;221.87;99.77;;;;;;;;;;5091601;28;20088;-60
2021/01/01 01:23:37;;;;;;;209.13;97.00;;;;;;;;;;5091201;28;20476;-60
2021/01/01 01:26:03;;;;;;;211.50;101.00;;;;;;;;;;5090779;28;20444;-60
2021/01/01 01:28:28;;;;;;;235.17;112.77;;;;;;;;;;5091373;28;20043;-60
2021/01/01 01:30:53;;;;;;;254.30;114.87;;;;;;;;;;5073114;28;20062;-60
2021/01/01 01:33:19;;;;;;;258.10;118.90;;;;;;;;;;5090443;28;20111;-62
2021/01/01 01:35:44;;;;;;;252.33;119.40;;;;;;;;;;5073009;28;20383;-62
2021/01/01 01:38:09;;;;;;;272.23;125.40;;;;;;;;;;5072396;28;20044;-62
2021/01/01 01:40:35;;;;;;;289.20;131.67;;;;;;;;;;5090965;28;20133;-61
2021/01/01 01:43:00;;;;;;;296.07;133.70;;;;;;;;;;5090446;28;20024;-60
2021/01/01 01:45:25;;;;;;;325.83;149.30;;;;;;;;;;5091081;28;20016;-60
2021/01/01 01:47:51;;;;;;;335.17;157.20;;;;;;;;;;5092637;28;20089;-62
2021/01/01 01:50:17;;;;;;;314.85;144.75;;;;;;;;;;5094632;28;20031;-61
2021/01/01 01:52:42;;;;;;;336.60;148.03;;;;;;;;;;5095293;28;20030;-61
2021/01/01 01:55:09;;;;;;;324.57;150.80;;;;;;;;;;5076570;28;20452;-60
2021/01/01 01:57:34;;;;;;;;;;;;;;;;;;5095641;28;20024;-61
2021/01/01 02:02:51;;;;;;;309.48;138.57;;;;;;;;;;5094722;28;20097;-62
2021/01/01 02:05:17;;;;;;;;;;;;;;;;;;5094958;28;20081;-61
2021/01/01 02:07:42;;;;;;;310.23;138.17;;;;;;;;;;5095352;28;20006;-61
2021/01/01 02:10:08;;;;;;;285.23;125.33;;;;;;;;;;5094187;28;20419;-61
2021/01/01 02:12:33;;;;;;;263.60;120.32;;;;;;;;;;5093905;28;20481;-59
2021/01/01 02:14:58;;;;;;;267.13;115.10;;;;;;;;;;5094868;28;20052;-61
2021/01/01 02:17:24;;;;;;;240.23;108.47;;;;;;;;;;5076127;28;20024;-61
2021/01/01 02:20:02;;;;;;;244.85;110.00;;;;;;;;;;5094872;28;20024;-61
2021/01/01 02:22:27;;;;;;;227.68;101.72;;;;;;;;;;5076673;28;20063;-61
2021/01/01 02:24:52;;;;;;;228.13;101.00;;;;;;;;;;5094859;28;20118;-61
2021/01/01 02:27:18;;;;;;;233.70;101.73;;;;;;;;;;5094139;28;20444;-61
2021/01/01 02:29:43;;;;;;;222.20;99.53;;;;;;;;;;5076249;28;20432;-61
2021/01/01 02:32:08;;;;;;;226.60;100.77;;;;;;;;;;5093688;28;20032;-61
2021/01/01 02:34:33;;;;;;;209.60;94.03;;;;;;;;;;5076353;28;20099;-61
2021/01/01 02:36:59;;;;;;;219.57;95.03;;;;;;;;;;5094187;28;20489;-61
2021/01/01 02:39:24;;;;;;;219.97;93.70;;;;;;;;;;5093925;28;20386;-61
2021/01/01 02:41:50;;;;;;;214.97;94.50;;;;;;;;;;5076207;28;20108;-60
2021/01/01 02:44:18;;;;;;;210.70;92.43;;;;;;;;;;5093497;28;20036;-60
2021/01/01 02:46:44;;;;;;;214.40;94.78;;;;;;;;;;5084925;28;20035;-61
2021/01/01 02:49:09;;;;;;;226.87;97.90;;;;;;;;;;5075887;28;20048;-60
2021/01/01 02:51:34;;;;;;;222.33;96.87;;;;;;;;;;5074073;28;20032;-61
2021/01/01 02:54:00;;;;;;;218.90;93.57;;;;;;;;;;5073929;28;20108;-61
2021/01/01 02:56:25;;;;;;;224.00;94.17;;;;;;;;;;5072966;28;20063;-61
2021/01/01 02:58:50;;;;;;;230.57;99.70;;;;;;;;;;5073848;28;20029;-61
2021/01/01 03:01:18;;;;;;;182.80;76.63;;;;;;;;;;5073161;28;20457;-60
2021/01/01 03:03:43;;;;;;;226.02;97.25;;;;;;;;;;5073842;28;20028;-61
2021/01/01 03:06:09;;;;;;;233.13;97.97;;;;;;;;;;5088460;28;20029;-61
2021/01/01 03:08:34;;;;;;;228.87;98.50;;;;;;;;;;5073502;28;20035;-60
2021/01/01 03:10:59;;;;;;;262.13;111.37;;;;;;;;;;5073752;28;20049;-60
2021/01/01 03:13:24;;;;;;;265.80;118.20;;;;;;;;;;5088685;28;20071;-60
2021/01/01 03:15:50;;;;;;;218.07;91.03;;;;;;;;;;5072166;28;20527;-61
2021/01/01 03:18:15;;;;;;;197.97;87.47;;;;;;;;;;5088200;28;20547;-61
2021/01/01 03:20:41;;;;;;;265.87;122.57;;;;;;;;;;5073432;28;20116;-62
2021/01/01 03:23:06;;;;;;;289.50;122.33;;;;;;;;;;5073969;28;20124;-61
2021/01/01 03:25:31;;;;;;;278.30;115.97;;;;;;;;;;5073505;28;20445;-62
2021/01/01 03:27:56;;;;;;;251.73;114.60;;;;;;;;;;5073353;28;20036;-62
2021/01/01 03:30:22;;;;;;;281.23;119.83;;;;;;;;;;5072548;28;20033;-60
2021/01/01 03:32:47;;;;;;;247.97;111.10;;;;;;;;;;5073323;28;20021;-61
2021/01/01 03:35:13;;;;;;;250.30;109.53;;;;;;;;;;5072565;28;20036;-60
2021/01/01 03:37:38;;;;;;;249.37;105.40;;;;;;;;;;5055248;28;20032;-62
2021/01/01 03:40:04;;;;;;;254.47;107.53;;;;;;;;;;5073008;28;20024;-62
2021/01/01 03:42:29;;;;;;;241.77;105.28;;;;;;;;;;5087911;28;20056;-61
2021/01/01 03:44:55;;;;;;;235.67;103.77;;;;;;;;;;5072717;28;20046;-61
2021/01/01 03:47:20;;;;;;;247.10;101.47;;;;;;;;;;5072025;28;20052;-60
2021/01/01 03:49:45;;;;;;;232.90;97.03;;;;;;;;;;5072882;28;20037;-60
2021/01/01 03:52:11;;;;;;;229.07;97.27;;;;;;;;;;5072036;28;20035;-60
2021/01/01 03:54:36;;;;;;;239.27;100.33;;;;;;;;;;5072562;28;20477;-61
2021/01/01 03:57:02;;;;;;;231.93;101.87;;;;;;;;;;5072905;28;20028;-61
2021/01/01 03:59:27;;;;;;;221.40;98.70;;;;;;;;;;5072103;28;20115;-61
2021/01/01 04:01:52;;;;;;;256.80;102.40;;;;;;;;;;5072457;28;20116;-60
2021/01/01 04:04:18;;;;;;;237.93;100.27;;;;;;;;;;5072003;28;20012;-61
2021/01/01 04:06:43;;;;;;;233.33;100.97;;;;;;;;;;5054438;28;20093;-59
2021/01/01 04:09:08;;;;;;;243.43;101.37;;;;;;;;;;5072201;28;20472;-60
2021/01/01 04:11:34;;;;;;;228.73;99.93;;;;;;;;;;5053453;28;20464;-59
2021/01/01 04:13:59;;;;;;;237.95;104.95;;;;;;;;;;5072299;28;20032;-60
2021/01/01 04:16:25;;;;;;;235.00;103.43;;;;;;;;;;5071865;28;20074;-60
2021/01/01 04:18:50;;;;;;;239.13;99.10;;;;;;;;;;5072094;28;20036;-60
2021/01/01 04:21:16;;;;;;;244.93;100.07;;;;;;;;;;5053643;28;20039;-60
2021/01/01 04:23:41;;;;;;;229.57;102.00;;;;;;;;;;5072326;28;20031;-61
2021/01/01 04:26:08;;;;;;;248.07;101.17;;;;;;;;;;5072204;28;20063;-61
2021/01/01 04:28:34;;;;;;;231.32;96.85;;;;;;;;;;5071068;28;20036;-62
2021/01/01 04:30:59;;;;;;;229.17;96.17;;;;;;;;;;5072205;28;20030;-61
2021/01/01 04:33:24;;;;;;;241.53;100.70;;;;;;;;;;5071413;28;20116;-60
2021/01/01 04:35:50;;;;;;;248.80;98.50;;;;;;;;;;5072099;28;20062;-59
2021/01/01 04:38:15;;;;;;;252.80;108.37;;;;;;;;;;5070912;28;20552;-59
2021/01/01 04:40:40;;;;;;;251.33;106.90;;;;;;;;;;5071584;28;20017;-62
2021/01/01 04:43:06;;;;;;;253.90;108.30;;;;;;;;;;5071885;28;20041;-60
2021/01/01 04:45:32;;;;;;;243.68;103.18;;;;;;;;;;5071075;28;20104;-59
2021/01/01 04:47:57;;;;;;;233.23;100.30;;;;;;;;;;5071432;28;20040;-60
2021/01/01 04:50:23;;;;;;;234.07;99.53;;;;;;;;;;5053124;28;20028;-60
2021/01/01 04:52:48;;;;;;;230.30;98.70;;;;;;;;;;5071352;28;20078;-60
2021/01/01 04:55:14;;;;;;;225.13;94.13;;;;;;;;;;5071627;28;20056;-60
2021/01/01 04:57:39;;;;;;;221.32;95.43;;;;;;;;;;5071054;28;20028;-62
2021/01/01 05:00:05;;;;;;;226.33;94.43;;;;;;;;;;5071410;28;20026;-61
2021/01/01 05:02:30;;;;;;;211.30;87.50;;;;;;;;;;5071500;28;20115;-61
2021/01/01 05:04:57;;;;;;;208.60;92.93;;;;;;;;;;5070993;28;20353;-62
2021/01/01 05:07:23;;;;;;;202.80;88.55;;;;;;;;;;5088011;28;20028;-59
2021/01/01 05:09:48;;;;;;;210.57;90.83;;;;;;;;;;5070996;28;20036;-62
2021/01/01 05:12:14;;;;;;;204.70;86.38;;;;;;;;;;5071926;28;20020;-61
2021/01/01 05:14:40;;;;;;;199.82;90.03;;;;;;;;;;5086122;28;20040;-61
2021/01/01 05:17:06;;;;;;;186.70;81.45;;;;;;;;;;5054036;28;20131;-59
2021/01/01 05:19:38;;;;;;;192.17;84.17;;;;;;;;;;5071259;28;20115;-61
2021/01/01 05:22:04;;;;;;;195.73;85.40;;;;;;;;;;5070643;28;20107;-61
2021/01/01 05:24:33;;;;;;;186.73;82.93;;;;;;;;;;5070462;28;20025;-60
2021/01/01 05:27:08;;;;;;;184.93;81.07;;;;;;;;;;5071275;28;20033;-61
2021/01/01 05:29:34;;;;;;;200.23;83.03;;;;;;;;;;5070605;28;20107;-61
2021/01/01 05:32:00;;;;;;;184.90;77.87;;;;;;;;;;5071041;28;20039;-61
2021/01/01 05:34:25;;;;;;;;;;;;;;;;;;5070753;28;20024;-60
2021/01/01 05:36:51;;;;;;;164.80;68.13;;;;;;;;;;5053208;28;19998;-60
2021/01/01 05:39:16;;;;;;;164.83;65.47;;;;;;;;;;5071237;28;20036;-60
2021/01/01 05:41:42;;;;;;;157.47;67.23;;;;;;;;;;5070549;28;20380;-60
2021/01/01 05:44:08;;;;;;;150.50;67.95;;;;;;;;;;5053167;28;20043;-61
2021/01/01 05:46:33;;;;;;;145.03;62.70;;;;;;;;;;5070344;28;20020;-61
2021/01/01 05:48:59;;;;;;;156.47;62.57;;;;;;;;;;5070588;28;20037;-62
2021/01/01 05:51:24;;;;;;;139.32;59.83;;;;;;;;;;5070552;28;20028;-60
2021/01/01 05:53:49;;;;;;;140.60;56.57;;;;;;;;;;5070960;28;20421;-60
2021/01/01 05:56:15;;;;;;;124.60;57.00;;;;;;;;;;5086601;28;20029;-60
2021/01/01 05:58:40;;;;;;;135.97;54.37;;;;;;;;;;5085785;28;20281;-61
2021/01/01 06:01:07;;;;;;;116.28;53.35;;;;;;;;;;5070924;28;20028;-61
2021/01/01 06:03:35;;;;;;;123.25;49.42;;;;;;;;;;5070214;28;20031;-61
2021/01/01 06:06:04;;;;;;;128.50;52.05;;;;;;;;;;5070975;28;20048;-60
2021/01/01 06:08:30;;;;;;;112.03;47.63;;;;;;;;;;5069853;28;20178;-60
2021/01/01 06:11:02;;;;;;;125.85;50.88;;;;;;;;;;5070436;28;20155;-60
2021/01/01 06:13:32;;;;;;;125.80;52.72;;;;;;;;;;5085837;28;20077;-60
2021/01/01 06:15:59;;;;;;;122.78;51.70;;;;;;;;;;5070834;28;20024;-60
2021/01/01 06:18:24;;;;;;;;;;;;;;;;;;5070352;28;20032;-61
2021/01/01 06:20:54;;;;;;;116.00;50.40;;;;;;;;;;5070425;28;19924;-60
2021/01/01 06:23:29;;;;;;;125.53;55.72;;;;;;;;;;5070734;28;20024;-60
2021/01/01 06:25:55;;;;;;;126.53;54.67;;;;;;;;;;5070590;28;20052;-61
2021/01/01 06:28:20;;;;;;;123.53;51.90;;;;;;;;;;5070598;28;20129;-61
2021/01/01 06:30:46;;;;;;;119.80;50.95;;;;;;;;;;5051799;28;20032;-61
2021/01/01 06:33:11;;;;;;;107.17;47.07;;;;;;;;;;5071137;28;20094;-62
2021/01/01 06:35:41;;;;;;;102.30;42.30;;;;;;;;;;5073449;28;20511;-60
2021/01/01 06:38:06;;;;;;;115.55;48.08;;;;;;;;;;5056250;28;20276;-61
2021/01/01 06:40:33;;;;;;;113.53;46.47;;;;;;;;;;5073629;28;20108;-61
2021/01/01 06:43:02;;;;;;;102.07;43.60;;;;;;;;;;5074170;28;20032;-62
2021/01/01 06:45:45;;;;;;;110.07;45.67;;;;;;;;;;5073597;28;20078;-60
2021/01/01 06:48:33;;;;;;;97.40;41.67;;;;;;;;;;5074214;28;20051;-60
2021/01/01 06:50:59;;;;;;;101.32;43.22;;;;;;;;;;5065573;28;20055;-60
2021/01/01 06:53:30;;;;;;;81.60;32.73;;;;;;;;;;5089832;28;20020;-60
2021/01/01 06:56:09;;;;;;;103.10;41.88;;;;;;;;;;5073981;28;20253;-60
2021/01/01 06:58:34;;;;;;;94.60;39.20;;;;;;;;;;5071999;28;20376;-61
2021/01/01 07:01:00;;;;;;;101.63;38.37;;;;;;;;;;5055914;28;20028;-61
2021/01/01 07:03:25;;;;;;;91.93;38.57;;;;;;;;;;5074067;28;20033;-61
2021/01/01 07:05:50;;;;;;;88.27;37.80;;;;;;;;;;5055286;28;20036;-61
2021/01/01 07:08:35;;;;;;;88.67;37.70;;;;;;;;;;5073786;28;20032;-60
2021/01/01 07:11:00;;;;;;;83.97;37.35;;;;;;;;;;5055321;28;20051;-61
2021/01/01 07:13:38;;;;;;;80.70;34.93;;;;;;;;;;5073513;28;20024;-65
2021/01/01 07:16:04;;;;;;;88.32;37.08;;;;;;;;;;5055362;28;20032;-60
2021/01/01 07:18:29;;;;;;;92.83;37.83;;;;;;;;;;5072831;28;20551;-59
2021/01/01 07:20:58;;;;;;;92.53;38.43;;;;;;;;;;5073294;28;20429;-60
2021/01/01 07:23:24;;;;;;;94.05;37.85;;;;;;;;;;5073562;28;20111;-61
2021/01/01 07:25:49;;;;;;;91.43;37.90;;;;;;;;;;5072551;28;20524;-60
2021/01/01 07:28:15;;;;;;;84.50;35.85;;;;;;;;;;5073035;28;20116;-61
2021/01/01 07:30:41;;;;;;;84.63;35.47;;;;;;;;;;5054516;28;20119;-61
2021/01/01 07:33:06;;;;;;;88.17;37.77;;;;;;;;;;5073334;28;20025;-61
2021/01/01 07:35:31;;;;;;;83.43;36.90;;;;;;;;;;5072702;28;20472;-59
2021/01/01 07:37:58;;;;;;;83.50;34.00;;;;;;;;;;5073294;28;20510;-61
2021/01/01 07:40:23;;;;;;;76.20;33.35;;;;;;;;;;5073258;28;20103;-61
2021/01/01 07:42:50;;;;;;;70.70;30.97;;;;;;;;;;5072582;28;20861;-61
2021/01/01 07:45:16;;;;;;;80.60;33.15;;;;;;;;;;5054347;28;20043;-60
2021/01/01 07:47:41;;;;;;;73.22;31.17;;;;;;;;;;5072448;28;20029;-61
2021/01/01 07:50:11;;;;;;;71.28;30.65;;;;;;;;;;5073014;28;20052;-60
2021/01/01 07:52:36;;;;;;;75.18;31.85;;;;;;;;;;5054450;28;20040;-59
2021/01/01 07:55:01;;;;;;;75.43;31.57;;;;;;;;;;5072649;28;20333;-62
2021/01/01 07:57:27;;;;;;;74.57;31.60;;;;;;;;;;5072635;28;20484;-61
2021/01/01 07:59:55;;;;;;;68.57;27.47;;;;;;;;;;5072220;28;20024;-61
2021/01/01 08:02:21;;;;;;;71.18;30.10;;;;;;;;;;5054694;28;20043;-61
2021/01/01 08:04:47;;;;;;;72.53;29.63;;;;;;;;;;5072025;28;20052;-61
2021/01/01 08:07:20;;;;;;;67.65;29.25;;;;;;;;;;5054575;28;20029;-60
2021/01/01 08:09:45;;;;;;;66.72;27.38;;;;;;;;;;5071615;28;20097;-60
2021/01/01 08:12:11;;;;;;;65.27;27.30;;;;;;;;;;5072605;28;20111;-60
2021/01/01 08:14:36;;;;;;;49.58;22.55;;;;;;;;;;5072042;28;20313;-59
2021/01/01 08:17:16;;;;;;;65.43;26.97;;;;;;;;;;5072222;28;20021;-61
2021/01/01 08:19:41;;;;;;;57.00;24.42;;;;;;;;;;5071927;28;20024;-60
2021/01/01 08:22:07;;;;;;;30.60;15.97;;;;;;;;;;5054468;28;20040;-61
2021/01/01 08:24:34;;;;;;;50.63;24.53;;;;;;;;;;5054232;28;20027;-61
2021/01/01 08:27:00;;;;;;;57.25;24.20;;;;;;;;;;5072649;28;20029;-59
2021/01/01 08:29:25;;;;;;;53.27;23.17;;;;;;;;;;5072065;28;20033;-60
2021/01/01 08:31:50;;;;;;;55.73;24.33;;;;;;;;;;5071454;28;20067;-61
2021/01/01 08:34:16;;;;;;;55.53;22.37;;;;;;;;;;5081426;28;20111;-61
2021/01/01 08:36:41;;;;;;;48.27;20.47;;;;;;;;;;5090887;28;20016;-60
2021/01/01 08:39:08;;;;;;;48.87;21.40;;;;;;;;;;5091810;28;20105;-61
2021/01/01 08:41:40;;;;;;;44.88;20.95;;;;;;;;;;5089413;28;20024;-61
2021/01/01 08:44:09;;;;;;;45.72;19.70;;;;;;;;;;5092314;28;20095;-61
2021/01/01 08:46:34;;;;;;;49.28;20.92;;;;;;;;;;5074191;28;20360;-61
2021/01/01 08:49:19;;;;;;;43.90;20.40;;;;;;;;;;5073383;28;20036;-62
2021/01/01 08:51:48;;;;;;;44.63;18.85;;;;;;;;;;5091550;28;20425;-61
2021/01/01 08:54:26;;;;;;;43.75;19.83;;;;;;;;;;5092193;28;20043;-62
2021/01/01 08:56:59;;;;;;;44.78;20.38;;;;;;;;;;5091067;28;20471;-61
2021/01/01 08:59:25;;;;;;;46.28;19.58;;;;;;;;;;5092196;28;20051;-61
2021/01/01 09:01:51;;;;;;;39.67;19.80;;;;;;;;;;5091516;28;20028;-61
2021/01/01 09:04:16;;;;;;;44.13;19.23;;;;;;;;;;5073981;28;20122;-61
2021/01/01 09:06:52;;;;;;;49.23;20.60;;;;;;;;;;5073383;28;20028;-61
2021/01/01 09:09:24;;;;;;;44.40;19.55;;;;;;;;;;5091866;28;20071;-60
2021/01/01 09:11:49;;;;;;;38.75;18.88;;;;;;;;;;5091384;28;20040;-61
2021/01/01 09:14:15;;;;;;;45.13;18.93;;;;;;;;;;5073980;28;20092;-63
2021/01/01 09:16:40;;;;;;;44.27;19.97;;;;;;;;;;5091251;28;20063;-61
2021/01/01 09:19:09;;;;;;;45.60;19.30;;;;;;;;;;5092233;28;20046;-62
2021/01/01 09:21:34;;;;;;;40.20;19.13;;;;;;;;;;5092056;28;20040;-62
2021/01/01 09:24:00;;;;;;;42.50;18.43;;;;;;;;;;5073227;28;20039;-60
2021/01/01 09:26:26;;;;;;;45.33;18.87;;;;;;;;;;5091690;28;20040;-60
2021/01/01 09:29:05;;;;;;;45.50;18.83;;;;;;;;;;5091130;28;20056;-60
2021/01/01 09:31:30;;;;;;;43.40;20.13;;;;;;;;;;5091304;28;20028;-60
2021/01/01 09:34:00;;;;;;;45.65;19.80;;;;;;;;;;5090805;28;20093;-61
2021/01/01 09:36:25;;;;;;;41.42;18.88;;;;;;;;;;5091611;28;20038;-60
2021/01/01 09:38:50;;;;;;;37.40;17.47;;;;;;;;;;5091044;28;20032;-61
2021/01/01 09:41:16;;;;;;;39.63;17.37;;;;;;;;;;5091705;28;20085;-60
2021/01/01 09:43:42;;;;;;;37.83;17.97;;;;;;;;;;5072816;28;20444;-54
2021/01/01 09:46:08;;;;;;;32.22;16.52;;;;;;;;;;5091962;28;20357;-60
2021/01/01 09:48:33;;;;;;;35.10;15.27;;;;;;;;;;5091846;28;20448;-60
2021/01/01 09:50:58;;;;;;;28.60;13.63;;;;;;;;;;5090974;28;20028;-61
2021/01/01 09:53:24;;;;;;;31.10;14.90;;;;;;;;;;5091686;28;20379;-61
2021/01/01 09:55:50;;;;;;;28.87;14.30;;;;;;;;;;5090874;28;20054;-61
2021/01/01 09:58:15;;;;;;;31.63;14.85;;;;;;;;;;5091407;28;20056;-61
2021/01/01 10:00:40;;;;;;;31.50;14.83;;;;;;;;;;5091129;28;20078;-61
2021/01/01 10:03:06;;;;;;;28.07;12.77;;;;;;;;;;5090798;28;20032;-61
2021/01/01 10:05:31;;;;;;;28.43;14.23;;;;;;;;;;5056759;28;20030;-60
2021/01/01 10:07:56;;;;;;;24.87;13.17;;;;;;;;;;5091140;28;20214;-61
2021/01/01 10:10:22;;;;;;;26.07;13.33;;;;;;;;;;5095094;28;20058;-61
2021/01/01 10:12:47;;;;;;;25.97;12.53;;;;;;;;;;5093445;28;20082;-60
2021/01/01 10:15:12;;;;;;;20.37;10.97;;;;;;;;;;5093926;28;20456;-60
2021/01/01 10:17:38;;;;;;;23.63;11.80;;;;;;;;;;5075525;28;20411;-60
2021/01/01 10:20:03;;;;;;;22.80;12.23;;;;;;;;;;5074756;28;20273;-61
2021/01/01 10:22:28;;;;;;;23.83;12.57;;;;;;;;;;5094199;28;20034;-60
2021/01/01 10:24:54;;;;;;;24.13;11.67;;;;;;;;;;5093239;28;20027;-60
2021/01/01 10:27:19;;;;;;;23.87;10.97;;;;;;;;;;5093555;28;20034;-60
2021/01/01 10:29:45;;;;;;;18.80;10.27;;;;;;;;;;5074687;28;20046;-60
2021/01/01 10:32:11;;;;;;;19.87;9.43;;;;;;;;;;5093274;28;20111;-60
2021/01/01 10:34:40;;;;;;;16.70;8.75;;;;;;;;;;5093563;28;20024;-61
2021/01/01 10:37:05;;;;;;;14.23;8.23;;;;;;;;;;5090398;28;20024;-61
2021/01/01 10:39:31;;;;;;;19.13;9.20;;;;;;;;;;5093424;28;20035;-62
2021/01/01 10:41:56;;;;;;;15.27;8.47;;;;;;;;;;5074399;28;20028;-59
2021/01/01 10:44:21;;;;;;;12.53;6.87;;;;;;;;;;5093343;28;20024;-60
2021/01/01 10:46:48;;;;;;;16.97;7.40;;;;;;;;;;5092343;28;20157;-60
2021/01/01 10:49:13;;;;;;;14.82;7.10;;;;;;;;;;5093200;28;20036;-60
2021/01/01 10:51:38;;;;;;;15.47;7.60;;;;;;;;;;5074850;28;20321;-59
2021/01/01 10:54:04;;;;;;;13.80;7.00;;;;;;;;;;5074148;28;20487;-61
2021/01/01 10:56:29;;;;;;;13.77;7.70;;;;;;;;;;5093101;28;20020;-60
2021/01/01 10:58:54;;;;;;;10.07;5.93;;;;;;;;;;5093454;28;20107;-60
2021/01/01 11:01:20;;;;;;;13.87;6.27;;;;;;;;;;5093394;28;20035;-61
2021/01/01 11:03:46;;;;;;;11.48;6.95;;;;;;;;;;5092507;28;20097;-56
2021/01/01 11:06:12;;;;;;;15.95;6.97;;;;;;;;;;5092491;28;20107;-61
2021/01/01 11:08:38;;;;;;;10.93;6.93;;;;;;;;;;5074107;28;20414;-60
2021/01/01 11:11:03;;;;;;;15.85;7.13;;;;;;;;;;5073505;28;20051;-60
2021/01/01 11:13:30;;;;;;;16.57;7.43;;;;;;;;;;5092559;28;20032;-61
2021/01/01 12:24:26;;;;;;;11.80;5.57;;;;;;;;;;5091594;28;20264;-62
2021/01/01 12:26:52;;;;;;;12.63;5.75;;;;;;;;;;5089820;28;20283;-56
2021/01/01 12:29:19;;;;;;;11.18;5.40;;;;;;;;;;5091907;28;20052;-61
2021/01/01 12:31:45;;;;;;;11.93;6.17;;;;;;;;;;5096118;28;20186;-61
2021/01/01 12:34:10;;;;;;;15.37;5.97;;;;;;;;;;5091300;28;20389;-62
2021/01/01 12:36:35;;;;;;;12.87;6.70;;;;;;;;;;5073508;28;20023;-62
2021/01/01 12:39:01;;;;;;;13.73;6.07;;;;;;;;;;5091332;28;20024;-61
2021/01/01 12:41:26;;;;;;;10.87;5.77;;;;;;;;;;5092119;28;20081;-61
2021/01/01 12:43:51;;;;;;;15.87;5.87;;;;;;;;;;5091994;28;20019;-61
2021/01/01 12:46:17;;;;;;;13.60;6.37;;;;;;;;;;5091195;28;20035;-61
2021/01/01 12:48:42;;;;;;;12.67;6.40;;;;;;;;;;5091732;28;20081;-62
2021/01/01 12:51:08;;;;;;;15.27;6.70;;;;;;;;;;5091197;28;20035;-59
2021/01/01 12:53:33;;;;;;;13.00;6.30;;;;;;;;;;5092040;28;20024;-61
2021/01/01 12:55:58;;;;;;;14.13;7.07;;;;;;;;;;5090974;28;20032;-65
2021/01/01 12:58:24;;;;;;;13.80;6.43;;;;;;;;;;5092274;28;20043;-62
2021/01/01 13:00:49;;;;;;;11.93;6.00;;;;;;;;;;5091519;28;20028;-59
2021/01/01 13:03:14;;;;;;;17.33;6.47;;;;;;;;;;5090869;28;20559;-61
2021/01/01 13:05:40;;;;;;;12.00;6.87;;;;;;;;;;5091189;28;20027;-60
2021/01/01 13:08:05;;;;;;;14.63;6.73;;;;;;;;;;5091000;28;20060;-60
2021/01/01 13:10:31;;;;;;;16.88;7.07;;;;;;;;;;5092268;28;20076;-62
2021/01/01 13:12:57;;;;;;;16.90;7.60;;;;;;;;;;5091665;28;20495;-60
2021/01/01 13:15:22;;;;;;;17.73;7.07;;;;;;;;;;5091934;28;20004;-62
2021/01/01 13:17:47;;;;;;;18.37;7.20;;;;;;;;;;5089004;28;20095;-61
2021/01/01 13:20:13;;;;;;;15.40;6.70;;;;;;;;;;5091829;28;20064;-62
2021/01/01 13:22:38;;;;;;;20.35;7.15;;;;;;;;;;5074411;28;20432;-62
2021/01/01 13:25:04;;;;;;;15.43;7.13;;;;;;;;;;5091029;28;20020;-62
2021/01/01 13:27:29;;;;;;;20.08;7.22;;;;;;;;;;5091488;28;20020;-62
2021/01/01 13:29:55;;;;;;;18.80;7.37;;;;;;;;;;5091344;28;20040;-62
2021/01/01 13:32:21;;;;;;;18.00;7.40;;;;;;;;;;5089805;28;20028;-59
2021/01/01 13:34:46;;;;;;;16.88;7.35;;;;;;;;;;5090945;28;20028;-60
2021/01/01 13:37:11;;;;;;;15.17;6.77;;;;;;;;;;5072589;28;20464;-61
2021/01/01 13:39:37;;;;;;;16.47;7.10;;;;;;;;;;5091292;28;20620;-60
2021/01/01 13:42:02;;;;;;;15.70;7.20;;;;;;;;;;5090581;28;20456;-61
2021/01/01 13:44:28;;;;;;;16.77;6.87;;;;;;;;;;5090380;28;20024;-61
2021/01/01 13:46:53;;;;;;;18.13;7.43;;;;;;;;;;5072272;28;20182;-60
2021/01/01 13:49:18;;;;;;;17.47;7.23;;;;;;;;;;5090372;28;20047;-61
2021/01/01 13:51:44;;;;;;;12.90;6.63;;;;;;;;;;5090806;28;20024;-60
2021/01/01 13:54:09;;;;;;;14.47;7.50;;;;;;;;;;5090162;28;20036;-61
2021/01/01 13:56:34;;;;;;;19.63;7.77;;;;;;;;;;5091170;28;20034;-61
2021/01/01 13:59:00;;;;;;;16.50;7.87;;;;;;;;;;5090549;28;20043;-54
2021/01/01 14:01:25;;;;;;;13.80;6.50;;;;;;;;;;5088029;28;20083;-60
2021/01/01 14:03:54;;;;;;;16.45;8.23;;;;;;;;;;5090806;28;20429;-61
2021/01/01 14:06:28;;;;;;;23.75;8.73;;;;;;;;;;5090135;28;20388;-61
2021/01/01 14:08:53;;;;;;;19.15;8.23;;;;;;;;;;5088909;28;20426;-62
2021/01/01 14:11:18;;;;;;;19.80;8.00;;;;;;;;;;5071932;28;20044;-61
2021/01/01 14:13:44;;;;;;;16.93;7.63;;;;;;;;;;5090660;28;20031;-60
2021/01/01 14:16:09;;;;;;;20.83;9.17;;;;;;;;;;5071880;28;20035;-60
2021/01/01 14:18:35;;;;;;;25.13;8.93;;;;;;;;;;5090326;28;20080;-59
2021/01/01 14:21:00;;;;;;;19.45;9.10;;;;;;;;;;5090778;28;20059;-58
2021/01/01 14:23:25;;;;;;;18.67;8.47;;;;;;;;;;5090178;28;20456;-60
2021/01/01 14:25:51;;;;;;;23.73;9.87;;;;;;;;;;5090541;28;20141;-61
2021/01/01 14:28:16;;;;;;;16.07;8.30;;;;;;;;;;5090070;28;20028;-60
2021/01/01 14:30:41;;;;;;;19.20;8.17;;;;;;;;;;5072200;28;20406;-61
2021/01/01 14:33:07;;;;;;;20.63;9.50;;;;;;;;;;5089564;28;20554;-60
2021/01/01 14:35:32;;;;;;;23.90;9.73;;;;;;;;;;5090619;28;20439;-61
2021/01/01 14:37:58;;;;;;;21.65;9.10;;;;;;;;;;5072627;28;20028;-60
2021/01/01 14:40:23;;;;;;;24.80;10.67;;;;;;;;;;5071892;28;20462;-60
2021/01/01 14:42:49;;;;;;;25.37;9.67;;;;;;;;;;5090684;28;20035;-60
2021/01/01 14:45:14;;;;;;;23.47;10.17;;;;;;;;;;5069288;28;20016;-61
2021/01/01 14:47:44;;;;;;;20.77;10.37;;;;;;;;;;5071994;28;20526;-61
2021/01/01 14:50:09;;;;;;;23.20;10.68;;;;;;;;;;5089500;28;20060;-61
2021/01/01 14:52:35;;;;;;;22.55;10.45;;;;;;;;;;5055072;28;20522;-61
2021/01/01 14:55:00;;;;;;;28.80;11.97;;;;;;;;;;5092079;28;20051;-60
2021/01/01 14:57:25;;;;;;;25.57;12.73;;;;;;;;;;5093353;28;20497;-60
2021/01/01 14:59:51;;;;;;;29.90;12.40;;;;;;;;;;5093801;28;20468;-63
2021/01/01 15:02:16;;;;;;;19.20;9.83;;;;;;;;;;5092843;28;20027;-60
2021/01/01 15:04:41;;;;;;;25.53;12.37;;;;;;;;;;5094072;28;20429;-61
2021/01/01 15:07:07;;;;;;;26.17;12.53;;;;;;;;;;5093720;28;20463;-59
2021/01/01 15:09:32;;;;;;;32.97;13.73;;;;;;;;;;5093918;28;20369;-60
2021/01/01 15:11:57;;;;;;;27.00;12.70;;;;;;;;;;5093698;28;20032;-62
2021/01/01 15:14:23;;;;;;;28.80;11.20;;;;;;;;;;5093295;28;20038;-60
2021/01/01 15:16:48;;;;;;;20.67;9.77;;;;;;;;;;5093770;28;20312;-60
2021/01/01 15:19:14;;;;;;;22.90;10.83;;;;;;;;;;5075018;28;20396;-61